createdAt,value
2018-05-13T00:00:26.528Z,15.91
2018-05-13T00:01:26.500Z,15.88
2018-05-13T00:02:26.479Z,15.89
2018-05-13T00:03:26.455Z,15.95
2018-05-13T00:04:26.428Z,15.86
2018-05-13T00:05:26.403Z,15.88
2018-05-13T00:06:26.380Z,15.96
2018-05-13T00:07:26.356Z,15.92
2018-05-13T00:08:26.336Z,15.92
2018-05-13T00:09:26.308Z,15.91
2018-05-13T00:10:26.288Z,15.86
2018-05-13T00:11:26.269Z,15.76
2018-05-13T00:12:26.238Z,15.81
2018-05-13T00:13:26.213Z,15.77
2018-05-13T00:14:26.189Z,15.77
2018-05-13T00:15:26.165Z,15.77
2018-05-13T00:16:26.142Z,15.76
2018-05-13T00:17:26.122Z,15.76
2018-05-13T00:18:26.093Z,15.76
2018-05-13T00:19:26.070Z,15.78
2018-05-13T00:20:26.047Z,15.76
2018-05-13T00:21:26.022Z,15.74
2018-05-13T00:22:26.002Z,15.76
2018-05-13T00:23:25.974Z,15.78
2018-05-13T00:24:25.950Z,15.77
2018-05-13T00:25:25.933Z,15.73
2018-05-13T00:26:25.902Z,15.68
2018-05-13T00:27:25.881Z,15.64
2018-05-13T00:28:25.855Z,15.68
2018-05-13T00:29:25.830Z,15.64
2018-05-13T00:30:25.806Z,15.66
2018-05-13T00:31:25.784Z,15.62
2018-05-13T00:32:25.759Z,15.70
2018-05-13T00:33:25.737Z,15.62
2018-05-13T00:34:25.710Z,15.64
2018-05-13T00:35:25.688Z,15.67
2018-05-13T00:36:25.663Z,15.62
2018-05-13T00:37:25.638Z,15.58
2018-05-13T00:38:25.614Z,15.53
2018-05-13T00:39:25.592Z,15.68
2018-05-13T00:40:25.567Z,15.64
2018-05-13T00:41:25.542Z,15.64
2018-05-13T00:42:25.519Z,15.59
2018-05-13T00:43:25.494Z,15.60
2018-05-13T00:44:25.470Z,15.56
2018-05-13T00:45:25.445Z,15.56
2018-05-13T00:46:25.424Z,15.56
2018-05-13T00:47:25.398Z,15.55
2018-05-13T00:48:25.374Z,15.56
2018-05-13T00:49:25.350Z,15.53
2018-05-13T00:50:25.327Z,15.59
2018-05-13T00:51:25.302Z,15.62
2018-05-13T00:52:25.278Z,15.70
2018-05-13T00:53:25.255Z,15.67
2018-05-13T00:54:25.230Z,15.56
2018-05-13T00:55:25.209Z,15.60
2018-05-13T00:56:25.187Z,15.56
2018-05-13T00:57:25.157Z,15.55
2018-05-13T00:58:25.133Z,15.53
2018-05-13T00:59:25.110Z,15.51
2018-05-13T01:00:25.092Z,15.55
2018-05-13T01:01:25.067Z,15.53
2018-05-13T01:02:25.042Z,15.53
2018-05-13T01:03:25.013Z,15.60
2018-05-13T01:04:24.993Z,15.55
2018-05-13T01:05:24.964Z,15.56
2018-05-13T01:06:24.941Z,15.64
2018-05-13T01:07:24.917Z,15.59
2018-05-13T01:08:24.903Z,15.62
2018-05-13T01:09:24.868Z,15.66
2018-05-13T01:10:24.845Z,15.60
2018-05-13T01:11:24.821Z,15.71
2018-05-13T01:12:24.802Z,15.67
2018-05-13T01:13:24.773Z,15.66
2018-05-13T01:14:24.749Z,15.58
2018-05-13T01:15:24.725Z,15.59
2018-05-13T01:16:24.702Z,15.56
2018-05-13T01:17:24.684Z,15.60
2018-05-13T01:18:24.658Z,15.64
2018-05-13T01:19:24.630Z,15.68
2018-05-13T01:20:24.606Z,15.59
2018-05-13T01:21:24.583Z,15.60
2018-05-13T01:22:24.558Z,15.55
2018-05-13T01:23:24.535Z,15.56
2018-05-13T01:24:24.511Z,15.62
2018-05-13T01:25:24.489Z,15.64
2018-05-13T01:26:24.462Z,15.56
2018-05-13T01:27:24.447Z,15.64
2018-05-13T01:28:24.419Z,15.53
2018-05-13T01:29:24.390Z,15.64
2018-05-13T01:30:24.366Z,15.68
2018-05-13T01:31:24.343Z,15.64
2018-05-13T01:32:24.320Z,15.58
2018-05-13T01:33:24.294Z,15.67
2018-05-13T01:34:24.271Z,15.56
2018-05-13T01:35:24.247Z,15.56
2018-05-13T01:36:24.224Z,15.58
2018-05-13T01:37:24.199Z,15.53
2018-05-13T01:38:24.181Z,15.58
2018-05-13T01:39:24.151Z,15.53
2018-05-13T01:40:24.128Z,15.55
2018-05-13T01:41:24.103Z,15.58
2018-05-13T01:42:24.086Z,15.60
2018-05-13T01:43:24.057Z,15.58
2018-05-13T01:44:24.036Z,15.64
2018-05-13T01:45:24.008Z,15.53
2018-05-13T01:46:23.984Z,15.59
2018-05-13T01:47:23.961Z,15.55
2018-05-13T01:48:23.936Z,15.59
2018-05-13T01:49:23.912Z,15.56
2018-05-13T01:50:23.888Z,15.60
2018-05-13T01:51:23.864Z,15.56
2018-05-13T01:52:23.841Z,15.55
2018-05-13T01:53:23.815Z,15.52
2018-05-13T01:54:23.792Z,15.58
2018-05-13T01:55:23.769Z,15.52
2018-05-13T01:56:23.747Z,15.43
2018-05-13T01:57:23.727Z,15.52
2018-05-13T01:58:23.696Z,15.52
2018-05-13T01:59:23.672Z,15.56
2018-05-13T02:00:23.656Z,15.52
2018-05-13T02:01:23.673Z,15.51
2018-05-13T02:02:23.599Z,15.51
2018-05-13T02:03:23.576Z,15.56
2018-05-13T02:04:23.552Z,15.48
2018-05-13T02:05:23.530Z,15.48
2018-05-13T02:06:23.505Z,15.44
2018-05-13T02:07:23.480Z,15.44
2018-05-13T02:08:23.459Z,15.44
2018-05-13T02:09:23.431Z,15.46
2018-05-13T02:10:23.407Z,15.46
2018-05-13T02:11:23.383Z,15.52
2018-05-13T02:12:23.360Z,15.48
2018-05-13T02:13:23.341Z,15.41
2018-05-13T02:14:23.310Z,15.43
2018-05-13T02:15:23.307Z,15.37
2018-05-13T02:16:23.262Z,15.43
2018-05-13T02:17:23.237Z,15.40
2018-05-13T02:18:23.214Z,15.35
2018-05-13T02:19:23.190Z,15.34
2018-05-13T02:20:23.167Z,15.35
2018-05-13T02:21:23.146Z,15.35
2018-05-13T02:22:23.117Z,15.34
2018-05-13T02:23:23.093Z,15.33
2018-05-13T02:24:23.070Z,15.34
2018-05-13T02:25:23.051Z,15.35
2018-05-13T02:26:23.023Z,15.30
2018-05-13T02:27:22.996Z,15.31
2018-05-13T02:28:22.972Z,15.38
2018-05-13T02:29:22.948Z,15.38
2018-05-13T02:30:22.924Z,15.35
2018-05-13T02:31:22.900Z,15.34
2018-05-13T02:32:22.879Z,15.46
2018-05-13T02:33:22.851Z,15.38
2018-05-13T02:34:22.827Z,15.44
2018-05-13T02:35:22.803Z,15.41
2018-05-13T02:36:22.832Z,15.44
2018-05-13T02:37:22.754Z,15.43
2018-05-13T02:38:22.734Z,15.52
2018-05-13T02:39:22.708Z,15.56
2018-05-13T02:40:22.683Z,15.52
2018-05-13T02:41:22.658Z,15.52
2018-05-13T02:42:22.646Z,15.44
2018-05-13T02:43:22.610Z,15.46
2018-05-13T02:44:22.586Z,15.48
2018-05-13T02:45:22.577Z,15.48
2018-05-13T02:46:22.548Z,15.31
2018-05-13T02:47:22.516Z,15.34
2018-05-13T02:48:22.490Z,15.31
2018-05-13T02:49:22.465Z,15.34
2018-05-13T02:50:22.443Z,15.31
2018-05-13T02:51:22.418Z,15.34
2018-05-13T02:52:22.393Z,15.30
2018-05-13T02:53:22.369Z,15.20
2018-05-13T02:54:22.345Z,15.22
2018-05-13T02:55:22.320Z,15.20
2018-05-13T02:56:22.301Z,15.22
2018-05-13T02:57:22.273Z,15.30
2018-05-13T02:58:22.248Z,15.25
2018-05-13T02:59:22.224Z,15.23
2018-05-13T03:00:22.201Z,15.23
2018-05-13T03:01:22.176Z,15.22
2018-05-13T03:02:22.152Z,15.27
2018-05-13T03:03:22.135Z,15.23
2018-05-13T03:04:22.104Z,15.27
2018-05-13T03:05:22.080Z,15.25
2018-05-13T03:06:22.062Z,15.18
2018-05-13T03:07:22.031Z,15.19
2018-05-13T03:08:22.007Z,15.27
2018-05-13T03:09:21.983Z,15.23
2018-05-13T03:10:21.959Z,15.20
2018-05-13T03:11:21.938Z,15.27
2018-05-13T03:12:21.909Z,15.19
2018-05-13T03:13:21.885Z,15.23
2018-05-13T03:14:21.861Z,15.15
2018-05-13T03:15:21.841Z,15.22
2018-05-13T03:16:21.813Z,15.18
2018-05-13T03:17:21.796Z,15.09
2018-05-13T03:18:21.764Z,15.09
2018-05-13T03:20:21.715Z,15.05
2018-05-13T03:21:21.691Z,15.07
2018-05-13T03:22:21.670Z,15.07
2018-05-13T03:23:21.642Z,15.13
2018-05-13T03:24:21.821Z,15.20
2018-05-13T03:25:21.593Z,15.09
2018-05-13T03:26:21.569Z,15.12
2018-05-13T03:27:21.550Z,15.16
2018-05-13T03:28:21.521Z,15.05
2018-05-13T03:29:21.502Z,15.23
2018-05-13T03:30:21.473Z,15.18
2018-05-13T03:31:21.449Z,15.20
2018-05-13T03:32:21.424Z,15.25
2018-05-13T03:33:21.399Z,15.23
2018-05-13T03:34:21.376Z,15.18
2018-05-13T03:35:21.351Z,15.23
2018-05-13T03:36:21.327Z,15.19
2018-05-13T03:37:21.306Z,15.20
2018-05-13T03:38:21.279Z,15.19
2018-05-13T03:39:21.254Z,15.23
2018-05-13T03:40:21.230Z,15.22
2018-05-13T03:41:21.205Z,15.27
2018-05-13T03:42:21.181Z,15.20
2018-05-13T03:43:21.157Z,15.23
2018-05-13T03:44:21.137Z,15.18
2018-05-13T03:45:21.108Z,15.22
2018-05-13T03:46:21.085Z,15.25
2018-05-13T03:47:21.071Z,15.31
2018-05-13T03:48:21.038Z,15.23
2018-05-13T03:49:21.012Z,15.25
2018-05-13T03:50:20.988Z,15.23
2018-05-13T03:51:20.965Z,15.22
2018-05-13T03:52:20.940Z,15.23
2018-05-13T03:53:20.915Z,15.20
2018-05-13T03:54:20.897Z,15.18
2018-05-13T03:55:20.867Z,15.27
2018-05-13T03:56:20.843Z,15.28
2018-05-13T03:57:20.829Z,15.35
2018-05-13T03:58:20.795Z,15.34
2018-05-13T03:59:20.775Z,15.37
2018-05-13T04:00:20.756Z,15.37
2018-05-13T04:01:20.734Z,15.37
2018-05-13T04:02:20.714Z,15.37
2018-05-13T04:03:20.679Z,15.43
2018-05-13T04:04:20.656Z,15.38
2018-05-13T04:05:20.627Z,15.41
2018-05-13T04:06:20.603Z,15.28
2018-05-13T04:07:20.618Z,15.35
2018-05-13T04:08:20.556Z,15.37
2018-05-13T04:09:20.531Z,15.35
2018-05-13T04:10:20.509Z,15.31
2018-05-13T04:11:20.484Z,15.35
2018-05-13T04:12:20.465Z,15.41
2018-05-13T04:13:20.442Z,15.46
2018-05-13T04:14:20.412Z,15.44
2018-05-13T04:15:20.389Z,15.53
2018-05-13T04:16:20.366Z,15.46
2018-05-13T04:17:20.343Z,15.43
2018-05-13T04:18:20.322Z,15.53
2018-05-13T04:19:20.293Z,15.53
2018-05-13T04:20:20.269Z,15.49
2018-05-13T04:21:20.248Z,15.60
2018-05-13T04:22:20.221Z,15.59
2018-05-13T04:23:20.200Z,15.58
2018-05-13T04:24:20.175Z,15.56
2018-05-13T04:25:20.153Z,15.66
2018-05-13T04:26:20.129Z,15.60
2018-05-13T04:27:20.107Z,15.66
2018-05-13T04:28:20.082Z,15.67
2018-05-13T04:29:20.055Z,15.56
2018-05-13T04:30:20.032Z,15.60
2018-05-13T04:31:20.009Z,15.55
2018-05-13T04:32:19.989Z,15.53
2018-05-13T04:33:19.966Z,15.59
2018-05-13T04:34:19.939Z,15.52
2018-05-13T04:35:19.918Z,15.62
2018-05-13T04:36:19.892Z,15.53
2018-05-13T04:37:19.866Z,15.64
2018-05-13T04:38:19.843Z,15.68
2018-05-13T04:39:19.822Z,15.71
2018-05-13T04:40:19.800Z,15.77
2018-05-13T04:41:19.772Z,15.67
2018-05-13T04:42:19.758Z,15.70
2018-05-13T04:43:19.725Z,15.96
2018-05-13T04:44:19.703Z,16.13
2018-05-13T04:45:19.678Z,16.18
2018-05-13T04:46:19.655Z,16.32
2018-05-13T04:47:19.637Z,16.65
2018-05-13T04:48:19.609Z,16.42
2018-05-13T04:49:19.585Z,16.72
2018-05-13T04:50:19.562Z,16.85
2018-05-13T04:51:19.539Z,16.77
2018-05-13T04:52:19.517Z,16.78
2018-05-13T04:53:19.492Z,16.85
2018-05-13T04:54:19.469Z,16.90
2018-05-13T04:55:19.447Z,16.82
2018-05-13T04:56:19.427Z,17.00
2018-05-13T04:57:19.400Z,17.24
2018-05-13T04:58:19.378Z,17.30
2018-05-13T04:59:19.358Z,17.06
2018-05-13T05:00:19.334Z,17.07
2018-05-13T05:01:19.310Z,17.10
2018-05-13T05:02:19.289Z,17.39
2018-05-13T05:03:19.265Z,17.47
2018-05-13T05:04:19.243Z,17.81
2018-05-13T05:05:19.221Z,17.38
2018-05-13T05:06:19.205Z,17.38
2018-05-13T05:07:19.177Z,17.14
2018-05-13T05:08:19.159Z,17.36
2018-05-13T05:09:19.144Z,17.20
2018-05-13T05:10:19.114Z,17.21
2018-05-13T05:11:19.090Z,17.24
2018-05-13T05:12:19.075Z,17.39
2018-05-13T05:13:19.047Z,17.33
2018-05-13T05:14:19.022Z,17.53
2018-05-13T05:15:19.006Z,17.94
2018-05-13T05:16:18.981Z,17.83
2018-05-13T05:17:18.957Z,17.99
2018-05-13T05:18:18.936Z,17.89
2018-05-13T05:19:18.914Z,17.71
2018-05-13T05:20:18.893Z,17.83
2018-05-13T05:21:18.871Z,18.38
2018-05-13T05:22:18.851Z,18.50
2018-05-13T05:23:18.829Z,18.54
2018-05-13T05:24:18.808Z,18.11
2018-05-13T05:25:18.787Z,17.95
2018-05-13T05:26:18.765Z,18.16
2018-05-13T05:27:18.745Z,18.05
2018-05-13T05:28:18.723Z,18.41
2018-05-13T05:29:18.701Z,18.53
2018-05-13T05:30:18.686Z,18.44
2018-05-13T05:31:18.659Z,18.17
2018-05-13T05:32:18.639Z,18.66
2018-05-13T05:33:18.626Z,19.09
2018-05-13T05:34:18.598Z,18.34
2018-05-13T05:35:18.579Z,18.46
2018-05-13T05:36:18.561Z,18.65
2018-05-13T05:37:18.535Z,18.93
2018-05-13T05:38:18.516Z,19.01
2018-05-13T05:39:18.495Z,19.35
2018-05-13T05:40:18.479Z,19.34
2018-05-13T05:41:18.454Z,18.54
2018-05-13T05:42:18.435Z,18.36
2018-05-13T05:43:18.413Z,18.72
2018-05-13T05:44:18.394Z,19.20
2018-05-13T05:45:18.373Z,18.72
2018-05-13T05:46:18.356Z,18.69
2018-05-13T05:47:18.335Z,18.94
2018-05-13T05:48:18.368Z,19.43
2018-05-13T05:49:18.293Z,19.55
2018-05-13T05:50:18.281Z,20.04
2018-05-13T05:51:18.254Z,20.53
2018-05-13T05:52:18.443Z,20.83
2018-05-13T05:53:18.217Z,20.72
2018-05-13T05:54:18.198Z,20.12
2018-05-13T05:55:21.000Z,20.07
2018-05-13T05:56:18.361Z,19.94
2018-05-13T05:57:18.136Z,19.60
2018-05-13T05:58:18.325Z,19.25
2018-05-13T05:59:18.102Z,19.65
2018-05-13T06:00:18.080Z,19.62
2018-05-13T06:01:18.060Z,19.90
2018-05-13T06:02:18.041Z,20.31
2018-05-13T06:03:18.115Z,20.72
2018-05-13T06:04:18.003Z,21.01
2018-05-13T06:05:17.987Z,21.22
2018-05-13T06:06:17.966Z,20.05
2018-05-13T06:07:17.947Z,20.33
2018-05-13T06:08:17.936Z,20.78
2018-05-13T06:09:17.909Z,20.23
2018-05-13T06:10:17.894Z,19.53
2018-05-13T06:11:17.875Z,19.90
2018-05-13T06:12:17.948Z,19.75
2018-05-13T06:13:17.838Z,19.90
2018-05-13T06:14:17.827Z,20.10
2018-05-13T06:15:17.827Z,19.38
2018-05-13T06:16:17.786Z,19.57
2018-05-13T06:17:17.766Z,20.08
2018-05-13T06:18:17.764Z,20.79
2018-05-13T06:19:17.763Z,21.40
2018-05-13T06:20:17.709Z,21.12
2018-05-13T06:21:17.893Z,20.58
2018-05-13T06:22:17.673Z,21.22
2018-05-13T06:23:17.857Z,21.75
2018-05-13T06:24:17.663Z,22.23
2018-05-13T06:25:17.660Z,22.51
2018-05-13T06:26:17.602Z,22.33
2018-05-13T06:27:17.584Z,22.72
2018-05-13T06:28:17.775Z,22.89
2018-05-13T06:29:17.550Z,22.52
2018-05-13T06:30:17.532Z,22.85
2018-05-13T06:31:17.514Z,22.60
2018-05-13T06:32:17.498Z,22.19
2018-05-13T06:33:17.480Z,22.54
2018-05-13T06:34:17.465Z,22.86
2018-05-13T06:35:17.446Z,22.72
2018-05-13T06:36:17.429Z,22.49
2018-05-13T06:37:17.411Z,22.72
2018-05-13T06:38:17.403Z,22.94
2018-05-13T06:39:17.382Z,22.89
2018-05-13T06:40:17.361Z,22.79
2018-05-13T06:41:17.348Z,21.90
2018-05-13T06:42:17.327Z,22.05
2018-05-13T06:43:17.312Z,22.30
2018-05-13T06:44:17.301Z,22.85
2018-05-13T06:45:17.332Z,22.94
2018-05-13T06:46:17.262Z,22.75
2018-05-13T06:47:17.256Z,22.97
2018-05-13T06:48:17.230Z,22.88
2018-05-13T06:49:17.220Z,23.14
2018-05-13T06:50:17.197Z,22.97
2018-05-13T06:51:17.243Z,22.91
2018-05-13T06:52:17.165Z,23.19
2018-05-13T06:53:17.148Z,23.18
2018-05-13T06:54:17.134Z,23.37
2018-05-13T06:55:17.116Z,23.00
2018-05-13T06:56:17.105Z,21.66
2018-05-13T06:57:17.088Z,21.06
2018-05-13T06:58:17.069Z,21.37
2018-05-13T06:59:17.053Z,21.56
2018-05-13T07:00:17.039Z,21.48
2018-05-13T07:01:17.025Z,20.88
2018-05-13T07:02:17.005Z,20.88
2018-05-13T07:03:16.989Z,21.09
2018-05-13T07:04:16.973Z,21.06
2018-05-13T07:05:16.961Z,20.93
2018-05-13T07:06:16.939Z,20.87
2018-05-13T07:07:16.930Z,21.00
2018-05-13T07:08:16.906Z,21.13
2018-05-13T07:09:16.892Z,21.27
2018-05-13T07:10:16.949Z,21.31
2018-05-13T07:11:16.855Z,21.22
2018-05-13T07:12:16.839Z,21.08
2018-05-13T07:13:16.824Z,21.06
2018-05-13T07:14:16.804Z,21.11
2018-05-13T07:15:16.787Z,21.53
2018-05-13T07:16:16.770Z,22.09
2018-05-13T07:17:16.804Z,22.31
2018-05-13T07:18:16.736Z,22.91
2018-05-13T07:19:16.721Z,22.08
2018-05-13T07:20:16.712Z,22.12
2018-05-13T07:21:16.685Z,21.81
2018-05-13T07:22:16.669Z,22.26
2018-05-13T07:23:16.658Z,22.66
2018-05-13T07:24:16.647Z,23.00
2018-05-13T07:25:16.625Z,23.62
2018-05-13T07:26:16.599Z,23.47
2018-05-13T07:27:16.583Z,23.44
2018-05-13T07:28:16.566Z,23.32
2018-05-13T07:29:16.595Z,23.53
2018-05-13T07:30:16.534Z,23.26
2018-05-13T07:31:16.520Z,23.31
2018-05-13T07:32:16.502Z,23.21
2018-05-13T07:33:16.485Z,23.60
2018-05-13T07:34:16.469Z,23.74
2018-05-13T07:35:16.453Z,24.34
2018-05-13T07:36:16.437Z,23.94
2018-05-13T07:37:16.428Z,23.49
2018-05-13T07:38:16.409Z,23.44
2018-05-13T07:39:16.391Z,23.99
2018-05-13T07:40:16.579Z,24.14
2018-05-13T07:41:16.360Z,24.29
2018-05-13T07:42:16.348Z,24.56
2018-05-13T07:43:16.399Z,24.89
2018-05-13T07:44:16.316Z,25.44
2018-05-13T07:45:16.301Z,26.50
2018-05-13T07:46:16.286Z,26.66
2018-05-13T07:47:16.273Z,26.86
2018-05-13T07:48:16.258Z,26.46
2018-05-13T07:49:16.243Z,26.69
2018-05-13T07:50:16.431Z,26.34
2018-05-13T07:51:16.417Z,26.17
2018-05-13T07:52:16.202Z,26.75
2018-05-13T07:53:16.390Z,26.44
2018-05-13T07:54:16.174Z,25.39
2018-05-13T07:55:16.161Z,25.49
2018-05-13T07:56:16.149Z,25.90
2018-05-13T07:57:16.745Z,26.11
2018-05-13T07:58:16.323Z,25.04
2018-05-13T07:59:16.138Z,25.29
2018-05-13T08:00:16.300Z,25.83
2018-05-13T08:01:16.283Z,26.23
2018-05-13T08:02:16.072Z,26.12
2018-05-13T08:03:58.420Z,25.76
2018-05-13T08:04:58.203Z,26.08
2018-05-13T08:05:58.199Z,26.53
2018-05-13T08:06:58.185Z,26.03
2018-05-13T08:07:58.166Z,25.54
2018-05-13T08:09:00.773Z,26.16
2018-05-13T08:09:58.342Z,26.98
2018-05-13T08:10:58.127Z,27.21
2018-05-13T08:11:58.115Z,26.90
2018-05-13T08:12:58.305Z,26.87
2018-05-13T08:13:58.337Z,27.23
2018-05-13T08:14:58.281Z,27.45
2018-05-13T08:15:58.268Z,26.72
2018-05-13T08:16:58.055Z,26.53
2018-05-13T08:17:58.042Z,27.01
2018-05-13T08:18:58.033Z,27.28
2018-05-13T08:19:58.020Z,27.13
2018-05-13T08:20:58.007Z,26.46
2018-05-13T08:21:58.001Z,27.05
2018-05-13T08:22:57.993Z,27.83
2018-05-13T08:23:57.973Z,27.12
2018-05-13T08:24:57.961Z,26.97
2018-05-13T08:25:57.953Z,27.06
2018-05-13T08:26:57.939Z,27.05
2018-05-13T08:27:57.928Z,26.91
2018-05-13T08:28:57.916Z,26.57
2018-05-13T08:29:58.106Z,27.42
2018-05-13T08:30:57.895Z,27.30
2018-05-13T08:31:57.883Z,26.93
2018-05-13T08:32:57.875Z,27.27
2018-05-13T08:33:57.861Z,27.12
2018-05-13T08:34:57.855Z,27.63
2018-05-13T08:35:57.844Z,27.66
2018-05-13T08:36:57.827Z,27.71
2018-05-13T08:37:57.816Z,27.50
2018-05-13T08:38:57.806Z,26.84
2018-05-13T08:39:57.796Z,26.64
2018-05-13T08:40:57.785Z,26.86
2018-05-13T08:41:57.799Z,27.16
2018-05-13T08:42:57.762Z,27.48
2018-05-13T08:43:57.752Z,27.31
2018-05-13T08:44:57.741Z,27.76
2018-05-13T08:45:57.730Z,28.62
2018-05-13T08:46:57.719Z,28.98
2018-05-13T08:47:57.711Z,27.38
2018-05-13T08:48:57.698Z,25.98
2018-05-13T08:49:57.694Z,25.48
2018-05-13T08:50:57.678Z,26.13
2018-05-13T08:51:57.667Z,26.90
2018-05-13T08:52:57.659Z,27.23
2018-05-13T08:53:57.761Z,27.01
2018-05-13T08:54:57.646Z,27.48
2018-05-13T08:55:57.633Z,27.99
2018-05-13T08:56:57.613Z,28.27
2018-05-13T08:57:57.606Z,27.48
2018-05-13T08:58:57.592Z,27.25
2018-05-13T08:59:57.583Z,27.49
2018-05-13T09:00:57.573Z,27.91
2018-05-13T09:01:57.560Z,27.12
2018-05-13T09:02:57.550Z,25.97
2018-05-13T09:03:57.540Z,25.66
2018-05-13T09:04:57.529Z,25.39
2018-05-13T09:05:57.520Z,25.34
2018-05-13T09:06:57.508Z,25.63
2018-05-13T09:07:57.498Z,25.66
2018-05-13T09:08:57.486Z,25.98
2018-05-13T09:09:57.481Z,26.44
2018-05-13T09:10:57.467Z,26.68
2018-05-13T09:11:57.457Z,27.87
2018-05-13T09:12:57.444Z,28.23
2018-05-13T09:13:57.433Z,28.51
2018-05-13T09:14:57.424Z,29.10
2018-05-13T09:15:57.416Z,28.95
2018-05-13T09:16:57.401Z,27.38
2018-05-13T09:17:57.397Z,26.90
2018-05-13T09:18:57.381Z,26.36
2018-05-13T09:19:57.373Z,26.66
2018-05-13T09:20:57.479Z,27.30
2018-05-13T09:21:57.351Z,27.74
2018-05-13T09:22:57.340Z,28.46
2018-05-13T09:23:57.330Z,27.62
2018-05-13T09:24:57.319Z,27.76
2018-05-13T09:25:57.313Z,27.91
2018-05-13T09:26:57.299Z,27.95
2018-05-13T09:27:57.290Z,28.25
2018-05-13T09:28:57.279Z,28.64
2018-05-13T09:29:57.281Z,28.02
2018-05-13T09:30:57.260Z,27.52
2018-05-13T09:31:57.250Z,26.88
2018-05-13T09:32:57.267Z,27.59
2018-05-13T09:33:57.230Z,27.59
2018-05-13T09:34:57.222Z,27.24
2018-05-13T09:35:57.211Z,27.01
2018-05-13T09:36:57.203Z,27.01
2018-05-13T09:37:57.200Z,26.44
2018-05-13T09:38:57.185Z,26.59
2018-05-13T09:39:57.175Z,26.81
2018-05-13T09:40:57.163Z,26.75
2018-05-13T09:41:57.156Z,26.69
2018-05-13T09:42:57.145Z,27.27
2018-05-13T09:43:57.134Z,26.71
2018-05-13T09:44:57.150Z,27.49
2018-05-13T09:45:57.191Z,27.99
2018-05-13T09:46:57.106Z,27.99
2018-05-13T09:47:57.094Z,28.23
2018-05-13T09:48:57.085Z,27.38
2018-05-13T09:49:57.075Z,28.05
2018-05-13T09:50:57.065Z,28.21
2018-05-13T09:51:57.056Z,28.43
2018-05-13T09:52:57.045Z,28.69
2018-05-13T09:53:57.036Z,27.31
2018-05-13T09:54:57.029Z,27.39
2018-05-13T09:55:57.024Z,26.96
2018-05-13T09:56:57.007Z,27.74
2018-05-13T09:57:57.000Z,27.43
2018-05-13T09:58:56.988Z,27.83
2018-05-13T09:59:56.979Z,28.08
2018-05-13T10:00:56.974Z,28.54
2018-05-13T10:01:56.960Z,28.85
2018-05-13T10:02:56.951Z,27.78
2018-05-13T10:03:57.019Z,27.39
2018-05-13T10:04:56.931Z,27.38
2018-05-13T10:05:56.922Z,28.28
2018-05-13T10:06:56.913Z,29.03
2018-05-13T10:07:56.908Z,28.62
2018-05-13T10:08:56.894Z,27.90
2018-05-13T10:09:56.887Z,27.81
2018-05-13T10:10:56.876Z,27.25
2018-05-13T10:11:56.867Z,27.02
2018-05-13T10:12:56.857Z,26.87
2018-05-13T10:13:56.853Z,26.81
2018-05-13T10:14:56.839Z,27.42
2018-05-13T10:15:56.830Z,27.39
2018-05-13T10:16:56.824Z,27.98
2018-05-13T10:17:56.810Z,27.69
2018-05-13T10:18:56.801Z,28.25
2018-05-13T10:19:56.792Z,27.52
2018-05-13T10:20:57.084Z,27.99
2018-05-13T10:21:56.771Z,28.24
2018-05-13T10:22:56.767Z,28.45
2018-05-13T10:23:56.757Z,28.77
2018-05-13T10:24:56.743Z,29.21
2018-05-13T10:25:56.742Z,29.62
2018-05-13T10:26:56.724Z,29.69
2018-05-13T10:27:56.716Z,30.25
2018-05-13T10:28:56.705Z,29.86
2018-05-13T10:29:56.696Z,29.17
2018-05-13T10:30:56.696Z,29.23
2018-05-13T10:31:56.684Z,29.17
2018-05-13T10:32:56.669Z,29.30
2018-05-13T10:33:56.661Z,29.18
2018-05-13T10:34:56.653Z,28.18
2018-05-13T10:35:56.649Z,28.85
2018-05-13T10:36:56.636Z,29.64
2018-05-13T10:37:56.625Z,29.27
2018-05-13T10:38:56.619Z,29.00
2018-05-13T10:39:56.609Z,29.39
2018-05-13T10:40:56.602Z,29.63
2018-05-13T10:41:56.591Z,29.66
2018-05-13T10:42:56.584Z,29.94
2018-05-13T10:43:56.574Z,30.60
2018-05-13T10:44:56.564Z,29.84
2018-05-13T10:45:56.557Z,29.32
2018-05-13T10:46:56.547Z,29.18
2018-05-13T10:47:56.538Z,29.11
2018-05-13T10:48:56.529Z,29.66
2018-05-13T10:49:56.521Z,29.70
2018-05-13T10:50:56.512Z,29.32
2018-05-13T10:51:56.503Z,29.41
2018-05-13T10:52:56.494Z,28.92
2018-05-13T10:53:56.485Z,29.23
2018-05-13T10:54:56.479Z,29.86
2018-05-13T10:55:56.469Z,29.39
2018-05-13T10:56:56.465Z,29.02
2018-05-13T10:57:56.455Z,29.14
2018-05-13T10:58:56.444Z,28.65
2018-05-13T10:59:56.435Z,28.55
2018-05-13T11:00:56.429Z,29.07
2018-05-13T11:01:56.417Z,29.12
2018-05-13T11:02:56.417Z,29.32
2018-05-13T11:03:56.406Z,29.17
2018-05-13T11:04:56.391Z,29.86
2018-05-13T11:05:56.390Z,29.79
2018-05-13T11:06:56.375Z,29.82
2018-05-13T11:07:56.366Z,29.49
2018-05-13T11:08:56.363Z,29.26
2018-05-13T11:09:56.348Z,29.03
2018-05-13T11:10:56.340Z,29.33
2018-05-13T11:11:56.332Z,29.32
2018-05-13T11:12:56.322Z,28.98
2018-05-13T11:13:56.315Z,28.91
2018-05-13T11:14:56.306Z,29.17
2018-05-13T11:15:56.298Z,28.43
2018-05-13T11:16:56.289Z,28.40
2018-05-13T11:17:56.282Z,28.28
2018-05-13T11:18:56.272Z,27.72
2018-05-13T11:19:56.353Z,27.61
2018-05-13T11:20:56.255Z,28.62
2018-05-13T11:21:56.246Z,28.91
2018-05-13T11:22:56.237Z,29.35
2018-05-13T11:23:56.231Z,29.82
2018-05-13T11:24:56.220Z,28.70
2018-05-13T11:25:56.218Z,29.02
2018-05-13T11:26:56.277Z,29.20
2018-05-13T11:27:56.197Z,29.70
2018-05-13T11:28:56.188Z,29.69
2018-05-13T11:29:56.184Z,28.85
2018-05-13T11:30:56.167Z,28.21
2018-05-13T11:31:56.159Z,28.67
2018-05-13T11:32:56.149Z,29.25
2018-05-13T11:33:56.151Z,29.35
2018-05-13T11:34:56.134Z,30.10
2018-05-13T11:35:56.124Z,29.03
2018-05-13T11:36:56.114Z,28.48
2018-05-13T11:37:56.105Z,29.23
2018-05-13T11:38:56.097Z,29.00
2018-05-13T11:39:56.131Z,29.10
2018-05-13T11:40:56.079Z,29.02
2018-05-13T11:41:56.070Z,29.35
2018-05-13T11:42:56.067Z,29.18
2018-05-13T11:43:56.052Z,29.12
2018-05-13T11:44:56.042Z,29.12
2018-05-13T11:45:56.040Z,29.07
2018-05-13T11:46:56.025Z,29.45
2018-05-13T11:47:56.018Z,29.23
2018-05-13T11:48:56.006Z,28.76
2018-05-13T11:49:56.003Z,28.87
2018-05-13T11:50:55.988Z,28.98
2018-05-13T11:51:55.979Z,28.21
2018-05-13T11:52:55.969Z,28.21
2018-05-13T11:53:55.962Z,28.57
2018-05-13T11:54:55.950Z,28.28
2018-05-13T11:55:55.940Z,28.33
2018-05-13T11:56:55.930Z,28.54
2018-05-13T11:57:55.919Z,28.83
2018-05-13T11:58:55.920Z,29.08
2018-05-13T11:59:55.902Z,29.12
2018-05-13T12:00:55.890Z,29.18
2018-05-13T12:01:56.130Z,30.07
2018-05-13T12:02:55.880Z,30.46
2018-05-13T12:03:55.861Z,30.21
2018-05-13T12:04:55.852Z,29.47
2018-05-13T12:05:55.842Z,28.46
2018-05-13T12:06:55.832Z,28.36
2018-05-13T12:07:55.823Z,28.21
2018-05-13T12:08:55.812Z,28.62
2018-05-13T12:09:55.802Z,28.97
2018-05-13T12:10:55.792Z,29.05
2018-05-13T12:11:55.786Z,29.29
2018-05-13T12:12:55.778Z,29.71
2018-05-13T12:13:56.114Z,30.16
2018-05-13T12:14:55.754Z,30.11
2018-05-13T12:15:55.745Z,30.07
2018-05-13T12:16:55.741Z,29.70
2018-05-13T12:17:55.726Z,30.11
2018-05-13T12:18:55.721Z,29.78
2018-05-13T12:19:55.710Z,29.82
2018-05-13T12:20:55.766Z,29.85
2018-05-13T12:21:55.693Z,30.13
2018-05-13T12:22:55.681Z,29.95
2018-05-13T12:23:55.672Z,30.07
2018-05-13T12:24:55.662Z,30.29
2018-05-13T12:25:55.655Z,30.42
2018-05-13T12:26:55.649Z,29.79
2018-05-13T12:27:55.637Z,29.95
2018-05-13T12:28:55.638Z,29.94
2018-05-13T12:29:55.622Z,30.18
2018-05-13T12:30:55.613Z,30.21
2018-05-13T12:31:55.605Z,30.34
2018-05-13T12:32:55.595Z,29.73
2018-05-13T12:33:55.589Z,29.47
2018-05-13T12:34:55.588Z,29.63
2018-05-13T12:35:55.573Z,29.71
2018-05-13T12:36:55.814Z,29.92
2018-05-13T12:37:55.571Z,30.00
2018-05-13T12:38:55.549Z,30.34
2018-05-13T12:39:55.542Z,30.46
2018-05-13T12:40:55.533Z,30.66
2018-05-13T12:41:55.531Z,30.10
2018-05-13T12:42:55.518Z,29.95
2018-05-13T12:43:55.510Z,29.14
2018-05-13T12:44:55.505Z,28.50
2018-05-13T12:45:55.495Z,28.42
2018-05-13T12:46:55.487Z,28.74
2018-05-13T12:47:55.481Z,28.98
2018-05-13T12:48:55.474Z,28.87
2018-05-13T12:49:55.462Z,29.21
2018-05-13T12:50:55.459Z,29.74
2018-05-13T12:51:55.451Z,29.35
2018-05-13T12:52:55.437Z,29.41
2018-05-13T12:53:55.429Z,29.36